RJAZ(METAR)
06/28 16:00
RJAZ 280700Z 30002KT 9999 FEW006 BKN009 BKN013 23/21 Q1013 RMK
A2992=
戻る
トップページへ戻る
IMOC Co,.Ltd.